AirNav   Air Wisconsin Up To $57,000 Bonus
 
 440 users online  

72NY St Marys Heliport
Niagara Falls, New York, USA

GOING TO NIAGARA FALLS?


FAA INFORMATION EFFECTIVE 07 NOVEMBER 2019

Location

FAA Identifier: 72NY
Lat/Long: 43-09-13.1990N 079-01-48.1600W
43-09.219983N 079-01.802667W
43.1536664,-79.0300444
(estimated)
Elevation: 607 ft. / 185 m (estimated)
Variation: 10W (1985)
From city: 1 mile N of NIAGARA FALLS, NY
Time zone: UTC -5 (UTC -4 during Daylight Saving Time)
Zip code: 14092

Heliport Operations

Heliport use: Private use, MEDICAL USE.
Control tower: no
ARTCC: CLEVELAND CENTER
FSS: BUFFALO FLIGHT SERVICE STATION
Attendance: UNATNDD
Wind indicator: no
Segmented circle: no

Heliport Communications

WX ASOS at IAG (5 nm SE): PHONE 716-297-6984
WX ASOS at BUF (18 nm SE): PHONE 716-635-0532

Nearby radio navigation aids

VOR radial/distance  VOR name  Freq  Var
BUFr317/21.6BUFFALO VOR/DME116.4008W

 
NDB name  Hdg/Dist  Freq  Var  ID
KATHI298/8.832910WIA .. .-

Heliport Services

Airframe service: NONE
Powerplant service: NONE

Runway Information

Helipad H1

Dimensions: 60 x 60 ft. / 18 x 18 m
Surface: turf
Latitude: 43-09.220000N
Longitude: 079-01.802667W
Elevation: 607.0 ft.
Traffic pattern: leftleft

Heliport Ownership and Management from official FAA records

Ownership: Privately-owned
Manager: HARRY LANG
5300 MILITARY ROAD
LEWISTON, NY 14092
Phone 716-297-4800

Additional Remarks

FOR CD CTC CLEVELAND ARTCC AT 440-774-0490.

Instrument Procedures

There are no published instrument procedures at 72NY.

Some nearby airports with instrument procedures:

KIAG - Niagara Falls International Airport (5 nm SE)
KBUF - Buffalo Niagara International Airport (18 nm SE)
9G0 - Buffalo Airfield (22 nm SE)
9G3 - Akron Airport/Jesson Field (25 nm E)
9G6 - Pine Hill Airport (33 nm E)
 
Loc | Ops | Rwys | IFR | FBO | Links
Com | Nav | Svcs | Stats | Notes
Area around 72NY (St Marys Heliport)
 
Road maps at: MapQuest Bing Google
 
Aerial photo
No photo
 
Sectional chart

 
Airport distance calculator
Flying to St Marys Heliport? Find the distance to fly.

From to 72NY

Sunrise and sunset
Times for 19-Nov-2019
 Local
(UTC-5)
 Zulu
(UTC)
Morning civil twilight06:4411:44
Sunrise07:1512:15
Sunset16:4821:48
Evening civil twilight17:1922:19

Current date and time
Zulu (UTC)  19-Nov-2019 10:06:30
Local (UTC-5)  19-Nov-2019 05:06:30
 
METAR
KIAG 
5nm SE 
190953Z AUTO 07005KT 9SM OVC044 01/00 A2974 RMK AO2 SLP085 T00110000
CYSN 
7nm W 
190200Z 11003KT 15SM FEW070 OVC160 02/02 A2974 RMK AC2CI6 LAST STFD OBS/NEXT 191200 UTC SLP077
CWWZ 
10nm NW 
190900Z AUTO 08011KT 04/02 RMK AO1 SLP075 T00390019 56003
KBUF 
19nm SE 
190954Z 00000KT 10SM FEW036 OVC048 01/M01 A2974 RMK AO2 SLP077 T00111011
CWPC 
20nm SW 
190900Z AUTO 04005KT 02/M00 RMK AO1 SLP074 T00231002 56002
TAF
KIAG 
5nm SE 
190539Z 1906/2006 VRB03KT P6SM OVC025 FM191200 07004KT P6SM OVC020 FM191900 VRB03KT P6SM BKN020
CYSN 
7nm W 
181938Z 1820/1902 VRB03KT P6SM SCT040 OVC140 TEMPO 1820/1902 5SM -RASN BKN040 OVC140 RMK NXT FCST WILL BE ISSUED AT 191345Z
KBUF 
19nm SE 
190539Z 1906/2006 VRB03KT P6SM BKN020 FM191000 06004KT P6SM BKN025 FM192100 VRB03KT P6SM BKN025
NOTAMs
Click for the latest NOTAMs
NOTAMs are issued by the DoD/FAA and will open in a separate window not controlled by AirNav.

 

 
 

Would you like to see your business listed on this page?

 If your business provides an interesting product or service to pilots, flight crews, aircraft, or users of the St Marys Heliport, you should consider listing it here.  To start the listing process, click on the button below
 
Add a business
 

Other Pages about St Marys Heliport

Update a link
 
Copyright © AirNav, LLC. All rights reserved. Privacy Policy  Contact